Time;durP1;ratioP1;P1;durP2;ratioP2;P2;SDS_P1;SDS_P2;PMS_P1;PMS_P2;Temp;Humidity;BMP_temperature;BMP_pressure;BME280_temperature;BME280_humidity;BME280_pressure;Samples;Min_cycle;Max_cycle;Signal;HPM_P1;HPM_P2
2021/05/18 00:01:43;;;;;;;1999.90;999.90;;;12.20;99.90;;;;;;5079251;28;20195;-83
2021/05/18 00:04:09;;;;;;;1999.90;999.90;;;12.20;99.90;;;;;;5079902;28;20175;-84
2021/05/18 00:06:35;;;;;;;1999.90;999.90;;;12.20;99.90;;;;;;5080520;28;20600;-84
2021/05/18 00:11:45;;;;;;;1999.90;999.90;;;12.40;99.90;;;;;;5083699;28;20685;-84
2021/05/18 00:14:18;;;;;;;1999.90;999.90;;;12.40;99.90;;;;;;5083512;28;20191;-83
2021/05/18 00:16:44;;;;;;;1999.90;999.90;;;12.40;99.90;;;;;;5083155;28;20235;-83
2021/05/18 00:19:11;;;;;;;1999.90;999.90;;;12.40;99.90;;;;;;5065057;28;20244;-83
2021/05/18 00:21:37;;;;;;;1999.90;999.90;;;12.30;99.90;;;;;;5083066;28;20188;-83
2021/05/18 00:24:04;;;;;;;1999.90;999.90;;;12.30;99.90;;;;;;5083144;28;20175;-84
2021/05/18 00:26:29;;;;;;;1999.90;999.90;;;12.30;99.90;;;;;;5083239;28;20243;-83
2021/05/18 00:28:55;;;;;;;1999.90;999.90;;;12.30;99.90;;;;;;5082773;28;20203;-83
2021/05/18 00:31:21;;;;;;;1999.90;999.90;;;12.30;99.90;;;;;;5082927;28;20655;-84
2021/05/18 00:33:47;;;;;;;1999.90;999.90;;;12.30;99.90;;;;;;5083210;28;20203;-84
2021/05/18 00:36:15;;;;;;;1999.90;999.90;;;12.40;99.90;;;;;;5082996;28;20409;-84
2021/05/18 00:38:42;;;;;;;1999.90;999.90;;;12.40;99.90;;;;;;5064306;28;20186;-83
2021/05/18 00:41:09;;;;;;;1999.90;999.90;;;12.50;99.90;;;;;;5065726;28;20630;-84
2021/05/18 00:43:37;;;;;;;1999.90;999.90;;;12.40;99.90;;;;;;5064755;28;20211;-84
2021/05/18 00:46:03;;;;;;;1999.90;999.90;;;12.40;99.90;;;;;;5082168;28;20160;-84
2021/05/18 00:48:29;;;;;;;1999.90;999.90;;;12.30;99.90;;;;;;5082810;28;20230;-84
2021/05/18 00:51:01;;;;;;;1999.90;999.90;;;12.30;99.90;;;;;;5064199;28;20164;-84
2021/05/18 00:53:27;;;;;;;1999.90;999.90;;;12.30;99.90;;;;;;5082693;28;20156;-84
2021/05/18 00:56:05;;;;;;;1999.90;999.90;;;12.40;99.90;;;;;;5082571;28;20246;-84
2021/05/18 00:58:38;;;;;;;1999.90;999.90;;;12.40;99.90;;;;;;5064576;28;20192;-84
2021/05/18 01:01:15;;;;;;;1999.90;999.90;;;12.40;99.90;;;;;;5082972;28;20167;-84
2021/05/18 01:03:41;;;;;;;1999.90;999.90;;;12.40;99.90;;;;;;5082909;28;20168;-84
2021/05/18 01:06:21;;;;;;;1999.90;999.90;;;12.30;99.90;;;;;;5065518;28;20217;-84
2021/05/18 01:09:14;;;;;;;1999.90;999.90;;;12.30;99.90;;;;;;5082523;28;20211;-84
2021/05/18 01:11:47;;;;;;;1999.90;999.90;;;12.40;99.90;;;;;;5083291;28;20184;-84
2021/05/18 01:14:16;;;;;;;1999.90;999.90;;;12.40;99.90;;;;;;5082466;28;20212;-84
2021/05/18 01:16:45;;;;;;;1999.90;999.90;;;12.40;99.90;;;;;;5082336;28;20640;-84
2021/05/18 01:19:14;;;;;;;1999.90;999.90;;;12.30;99.90;;;;;;5064532;28;20221;-84
2021/05/18 01:21:40;;;;;;;1999.90;999.90;;;12.30;99.90;;;;;;5081933;28;20290;-84
2021/05/18 01:24:06;;;;;;;1999.90;999.90;;;12.20;99.90;;;;;;5064374;28;20179;-84
2021/05/18 01:26:34;;;;;;;1999.90;999.90;;;12.20;99.90;;;;;;5064353;28;20163;-84
2021/05/18 01:29:00;;;;;;;1999.90;999.90;;;12.30;99.90;;;;;;5081948;28;20223;-84
2021/05/18 01:31:26;;;;;;;1999.90;999.90;;;12.20;99.90;;;;;;5064443;28;20164;-84
2021/05/18 01:33:54;;;;;;;1999.90;999.90;;;12.20;99.90;;;;;;5082257;28;20578;-84
2021/05/18 01:36:22;;;;;;;1999.90;999.90;;;12.20;99.90;;;;;;5082224;28;20164;-84
2021/05/18 01:39:01;;;;;;;1999.90;999.90;;;12.20;99.90;;;;;;5082211;28;20184;-84
2021/05/18 01:44:12;;;;;;;1999.90;999.90;;;12.30;99.90;;;;;;5082233;28;20630;-84
2021/05/18 01:46:39;;;;;;;1999.90;999.90;;;12.30;99.90;;;;;;5064273;28;20164;-84
2021/05/18 01:49:08;;;;;;;1999.90;999.90;;;12.20;99.90;;;;;;5063520;28;20194;-84
2021/05/18 01:51:55;;;;;;;1999.90;999.90;;;12.20;99.90;;;;;;5081603;28;20602;-84
2021/05/18 01:54:27;;;;;;;1999.90;999.90;;;12.20;99.90;;;;;;5081709;28;20157;-84
2021/05/18 01:57:40;;;;;;;1999.90;999.90;;;12.20;99.90;;;;;;5063799;28;20236;-84
2021/05/18 01:59:40;;;;;;;1999.90;999.90;;;12.20;99.90;;;;;;5063604;28;20175;-84
2021/05/18 02:02:07;;;;;;;1999.90;999.90;;;12.30;99.90;;;;;;5080957;28;20203;-84
2021/05/18 02:04:43;;;;;;;1999.90;999.90;;;12.30;99.90;;;;;;5064020;28;20254;-84
2021/05/18 02:07:22;;;;;;;1999.90;999.90;;;12.30;99.90;;;;;;5081390;28;20250;-84
2021/05/18 02:09:49;;;;;;;1999.90;999.90;;;12.30;99.90;;;;;;5082683;28;20170;-84
2021/05/18 02:12:14;;;;;;;1999.90;999.90;;;12.30;99.90;;;;;;5081995;28;20167;-84
2021/05/18 02:14:43;;;;;;;1999.90;999.90;;;12.30;99.90;;;;;;5081352;28;20537;-84
2021/05/18 02:25:25;;;;;;;1999.90;999.90;;;12.10;99.90;;;;;;5081318;28;20209;-84
2021/05/18 02:27:52;;;;;;;1999.90;999.90;;;12.20;99.90;;;;;;5081106;28;20180;-84
2021/05/18 02:30:20;;;;;;;1999.90;999.90;;;12.20;99.90;;;;;;5081223;28;20164;-84
2021/05/18 02:32:46;;;;;;;1999.90;999.90;;;12.20;99.90;;;;;;5062322;28;20179;-83
2021/05/18 02:35:14;;;;;;;1999.90;999.90;;;12.20;99.90;;;;;;5080979;28;20171;-84
2021/05/18 02:37:40;;;;;;;1999.90;999.90;;;12.20;99.90;;;;;;5080514;28;20252;-84
2021/05/18 02:40:09;;;;;;;1999.90;999.90;;;12.20;99.90;;;;;;5080473;28;20255;-84
2021/05/18 02:42:34;;;;;;;1999.90;999.90;;;12.20;99.90;;;;;;5062888;28;20592;-84
2021/05/18 02:50:40;;;;;;;1999.90;999.90;;;12.20;99.90;;;;;;5080561;28;20193;-84
2021/05/18 02:53:06;;;;;;;1999.90;999.90;;;12.20;99.90;;;;;;5080653;28;20175;-84
2021/05/18 02:58:08;;;;;;;1999.90;999.90;;;12.20;99.90;;;;;;5081419;28;20476;-85
2021/05/18 03:00:34;;;;;;;1999.90;999.90;;;12.20;99.90;;;;;;5064833;28;20194;-85
2021/05/18 03:03:00;;;;;;;1999.90;999.90;;;12.20;99.90;;;;;;5081936;28;20195;-85
2021/05/18 03:05:26;;;;;;;1999.90;999.90;;;12.20;99.90;;;;;;5064520;28;20485;-85
2021/05/18 03:07:53;;;;;;;1999.90;999.90;;;12.20;99.90;;;;;;5082171;28;20480;-84
2021/05/18 03:10:21;;;;;;;1999.90;999.90;;;12.20;99.90;;;;;;5082086;28;20405;-84
2021/05/18 03:12:47;;;;;;;1999.90;999.90;;;12.10;99.90;;;;;;5063501;28;20178;-84
2021/05/18 03:15:14;;;;;;;1999.90;999.90;;;12.20;99.90;;;;;;5065736;28;20168;-84
2021/05/18 03:17:39;;;;;;;1999.90;999.90;;;12.10;99.90;;;;;;5082019;28;20265;-84
2021/05/18 03:20:08;;;;;;;1999.90;999.90;;;12.20;99.90;;;;;;5082246;28;20167;-84
2021/05/18 03:22:34;;;;;;;1999.90;999.90;;;12.10;99.90;;;;;;5082102;28;20812;-84
2021/05/18 03:24:59;;;;;;;1999.90;999.90;;;12.10;99.90;;;;;;5081632;28;20180;-84
2021/05/18 03:27:27;;;;;;;1999.90;999.90;;;12.00;99.90;;;;;;5064054;28;20504;-84
2021/05/18 03:29:53;;;;;;;1999.90;999.90;;;12.00;99.90;;;;;;5062746;28;20241;-84
2021/05/18 03:35:05;;;;;;;1999.90;999.90;;;12.10;99.90;;;;;;5081523;28;20238;-84
2021/05/18 03:37:51;;;;;;;1999.90;999.90;;;12.10;99.90;;;;;;5080479;28;20279;-84
2021/05/18 03:40:17;;;;;;;1999.90;999.90;;;12.00;99.90;;;;;;5081883;28;20155;-84
2021/05/18 03:42:54;;;;;;;1999.90;999.90;;;12.10;99.90;;;;;;5081472;28;20219;-85
2021/05/18 03:45:23;;;;;;;1999.90;999.90;;;12.10;99.90;;;;;;5084994;28;20603;-84
2021/05/18 03:58:53;;;;;;;1999.90;999.90;;;12.10;99.90;;;;;;5085077;28;20321;-84
2021/05/18 04:04:18;;;;;;;1999.90;999.90;;;12.10;99.90;;;;;;5085250;28;20163;-84
2021/05/18 04:17:40;;;;;;;1999.90;999.90;;;11.90;99.90;;;;;;5084713;28;20218;-84
2021/05/18 04:20:21;;;;;;;1999.90;999.90;;;11.90;99.90;;;;;;5084352;28;20179;-84
2021/05/18 04:22:57;;;;;;;1999.90;999.90;;;11.90;99.90;;;;;;5066388;28;20237;-84
2021/05/18 05:01:14;;;;;;;1999.90;999.90;;;12.00;99.90;;;;;;5083578;28;20167;-84
2021/05/18 05:09:02;;;;;;;1999.90;999.90;;;12.00;99.90;;;;;;5001333;28;20197;-83
2021/05/18 05:14:25;;;;;;;1999.90;999.90;;;12.00;99.90;;;;;;5083498;28;20159;-83
2021/05/18 05:16:54;;;;;;;1999.90;999.90;;;12.00;99.90;;;;;;5151341;22;20179;-82
2021/05/18 05:19:21;;;;;;;1999.90;999.90;;;12.00;99.90;;;;;;5082821;28;20196;-82
2021/05/18 05:21:46;;;;;;;1999.90;999.90;;;12.00;99.90;;;;;;5065764;28;20199;-82
2021/05/18 05:24:14;;;;;;;1999.90;999.90;;;12.00;99.90;;;;;;5083947;28;20496;-82
2021/05/18 05:26:41;;;;;;;1999.90;999.90;;;12.20;99.90;;;;;;5082401;28;20769;-82
2021/05/18 05:29:09;;;;;;;1999.90;999.90;;;12.20;99.90;;;;;;5083591;28;20180;-82
2021/05/18 05:31:37;;;;;;;1999.90;999.90;;;12.40;99.90;;;;;;5082897;28;20156;-81
2021/05/18 05:34:06;;;;;;;1999.90;999.90;;;12.30;99.90;;;;;;5064419;28;20227;-82
2021/05/18 05:36:37;;;;;;;1999.90;999.90;;;12.50;99.90;;;;;;5082423;28;20164;-83
2021/05/18 05:39:08;;;;;;;1999.90;999.90;;;12.50;99.90;;;;;;5063441;28;20670;-82
2021/05/18 05:41:34;;;;;;;1999.90;999.90;;;12.50;99.90;;;;;;5082400;28;20147;-83
2021/05/18 05:44:06;;;;;;;1999.90;999.90;;;12.50;99.90;;;;;;5082353;28;20156;-83
2021/05/18 05:46:33;;;;;;;1999.90;999.90;;;12.60;99.90;;;;;;5082316;28;20470;-83
2021/05/18 05:48:59;;;;;;;1999.90;999.90;;;12.50;99.90;;;;;;5080959;28;20195;-82
2021/05/18 05:51:26;;;;;;;1999.90;999.90;;;12.40;99.90;;;;;;5062552;28;20183;-82
2021/05/18 05:53:54;;;;;;;1999.90;999.90;;;12.40;99.90;;;;;;5080914;28;20409;-82
2021/05/18 05:56:21;;;;;;;1999.90;999.90;;;12.50;99.90;;;;;;5062981;28;20168;-81
2021/05/18 05:58:51;;;;;;;1999.90;999.90;;;12.50;99.90;;;;;;5080457;28;20552;-81
2021/05/18 06:01:19;;;;;;;1999.90;999.90;;;12.50;99.90;;;;;;5062106;28;20543;-82
2021/05/18 06:03:46;;;;;;;1999.90;999.90;;;12.40;99.90;;;;;;5080585;28;20255;-82
2021/05/18 06:06:17;;;;;;;1999.90;999.90;;;12.40;99.90;;;;;;5079854;28;20155;-82
2021/05/18 06:08:46;;;;;;;1999.90;999.90;;;12.20;99.90;;;;;;5080348;28;20180;-81
2021/05/18 06:34:07;;;;;;;1999.90;999.90;;;12.00;99.90;;;;;;5080112;28;20183;-83
2021/05/18 06:46:24;;;;;;;1999.90;999.90;;;11.90;99.90;;;;;;5077811;28;20148;-82
2021/05/18 06:48:58;;;;;;;1999.90;999.90;;;11.90;99.90;;;;;;5060109;28;20184;-83
2021/05/18 06:51:29;;;;;;;1999.90;999.90;;;11.90;99.90;;;;;;5062054;28;20235;-83
2021/05/18 06:53:57;;;;;;;1999.90;999.90;;;11.90;99.90;;;;;;5080386;28;20167;-83
2021/05/18 06:56:31;;;;;;;1999.90;999.90;;;11.90;99.90;;;;;;5080693;28;20160;-83
2021/05/18 07:01:31;;;;;;;1999.90;999.90;;;11.90;99.90;;;;;;5081023;28;20155;-83
2021/05/18 07:04:08;;;;;;;1999.90;999.90;;;12.00;99.90;;;;;;5079934;28;20164;-83
2021/05/18 07:06:42;;;;;;;1999.90;999.90;;;12.10;99.90;;;;;;5061793;28;20151;-83
2021/05/18 07:09:07;;;;;;;1999.90;999.90;;;12.30;99.90;;;;;;5079142;28;20241;-82
2021/05/18 07:11:33;;;;;;;1999.90;999.90;;;12.50;99.90;;;;;;5079368;28;20158;-83
2021/05/18 07:13:59;;;;;;;1999.90;999.90;;;12.60;99.90;;;;;;5060537;28;20913;-83
2021/05/18 07:16:51;;;;;;;1999.90;999.90;;;12.80;99.90;;;;;;5078873;28;20405;-83
2021/05/18 07:19:26;;;;;;;1999.90;999.90;;;12.90;99.90;;;;;;5056961;28;20196;-82
2021/05/18 07:21:52;;;;;;;1999.90;999.90;;;13.00;99.90;;;;;;5060889;28;20194;-84
2021/05/18 07:24:22;;;;;;;1999.90;999.90;;;13.20;99.90;;;;;;5060952;28;20186;-84
2021/05/18 07:26:50;;;;;;;1999.90;999.90;;;13.20;99.90;;;;;;5062331;28;20613;-84
2021/05/18 07:29:19;;;;;;;1999.90;999.90;;;13.30;99.90;;;;;;5086930;23;20512;-84
2021/05/18 07:31:45;;;;;;;1999.90;999.90;;;13.50;99.90;;;;;;5080895;28;20163;-83
2021/05/18 07:34:11;;;;;;;1999.90;999.90;;;13.60;99.90;;;;;;5061209;28;20616;-83
2021/05/18 07:36:37;;;;;;;1999.90;999.90;;;13.70;99.90;;;;;;5076956;28;20444;-83
2021/05/18 07:39:04;;;;;;;1999.90;999.90;;;13.80;99.90;;;;;;5080665;28;20179;-82
2021/05/18 07:41:32;;;;;;;1999.90;999.90;;;13.90;99.90;;;;;;5062086;28;20410;-83
2021/05/18 07:43:59;;;;;;;1999.90;999.90;;;14.10;99.90;;;;;;5079045;28;20405;-83
2021/05/18 07:46:24;;;;;;;1999.90;999.90;;;14.10;99.90;;;;;;5080741;28;20398;-82
2021/05/18 08:07:20;;;;;;;1999.90;999.90;;;14.00;99.90;;;;;;5074955;28;20409;-80
2021/05/18 08:10:51;;;;;;;1999.90;999.90;;;14.30;99.90;;;;;;5056416;28;20172;-80
2021/05/18 08:12:47;;;;;;;1999.90;999.90;;;14.40;99.90;;;;;;5057590;28;20459;-82
2021/05/18 08:59:03;;;;;;;1999.90;999.90;;;14.10;99.90;;;;;;5078106;28;20472;-80
2021/05/18 10:36:03;;;;;;;1999.90;999.90;;;14.60;99.90;;;;;;5056339;28;20391;-81
2021/05/18 10:38:44;;;;;;;1999.90;999.90;;;14.50;99.90;;;;;;5056020;28;20476;-82
2021/05/18 10:41:23;;;;;;;1999.90;999.90;;;14.70;99.90;;;;;;5056061;28;20376;-81
2021/05/18 10:44:02;;;;;;;1999.90;999.90;;;14.80;99.90;;;;;;5038212;28;20532;-80
2021/05/18 10:47:20;;;;;;;1999.90;999.90;;;15.00;99.90;;;;;;5056115;28;20415;-82
2021/05/18 10:50:01;;;;;;;1999.90;999.90;;;15.30;99.90;;;;;;5007528;28;20418;-82
2021/05/18 10:52:39;;;;;;;1999.90;999.90;;;15.30;99.90;;;;;;5058784;28;20380;-81
2021/05/18 10:55:18;;;;;;;1999.90;999.90;;;15.30;99.90;;;;;;5040088;28;20407;-82
2021/05/18 10:57:50;;;;;;;1999.90;999.90;;;15.40;99.90;;;;;;5058961;28;20434;-83
2021/05/18 11:00:45;;;;;;;1999.90;999.90;;;15.70;99.90;;;;;;5060529;28;20399;-83
2021/05/18 11:03:13;;;;;;;1999.90;999.90;;;15.90;99.90;;;;;;5043116;28;20454;-83
2021/05/18 11:05:54;;;;;;;1999.90;999.90;;;16.10;99.90;;;;;;5050042;28;20806;-83
2021/05/18 11:08:22;;;;;;;1999.90;999.90;;;16.40;99.90;;;;;;5059846;28;20426;-83
2021/05/18 11:10:51;;;;;;;1999.90;999.90;;;16.80;99.90;;;;;;5060188;28;20438;-82
2021/05/18 11:14:00;;;;;;;1999.90;999.90;;;17.00;99.90;;;;;;5060670;28;20438;-83
2021/05/18 11:19:16;;;;;;;1999.90;999.90;;;16.90;99.90;;;;;;5146139;22;20485;-83
2021/05/18 11:21:57;;;;;;;1999.90;999.90;;;16.90;99.90;;;;;;5077404;28;20419;-83
2021/05/18 11:24:23;;;;;;;1999.90;999.90;;;17.00;99.90;;;;;;5076740;28;20167;-83
2021/05/18 11:26:49;;;;;;;1999.90;999.90;;;17.00;99.90;;;;;;5077070;28;20407;-83
2021/05/18 11:29:16;;;;;;;1999.90;999.90;;;17.00;99.90;;;;;;5077861;28;20269;-82
2021/05/18 11:31:42;;;;;;;1999.90;999.90;;;17.00;99.90;;;;;;5077511;28;20585;-82
2021/05/18 11:34:08;;;;;;;1999.90;999.90;;;17.30;99.90;;;;;;5077458;28;20907;-82
2021/05/18 11:36:38;;;;;;;1999.90;999.90;;;17.50;99.90;;;;;;5077018;28;20407;-82
2021/05/18 11:39:08;;;;;;;1999.90;999.90;;;17.80;99.90;;;;;;5076841;28;20867;-82
2021/05/18 11:41:37;;;;;;;1999.90;999.90;;;17.90;99.90;;;;;;5077829;28;20440;-82
2021/05/18 11:44:05;;;;;;;1999.90;999.90;;;17.90;99.90;;;;;;5078825;28;20403;-83
2021/05/18 11:46:33;;;;;;;1999.90;999.90;;;18.10;99.90;;;;;;5077834;28;20412;-83
2021/05/18 11:49:08;;;;;;;1999.90;999.90;;;18.40;99.90;;;;;;5077746;28;20758;-82
2021/05/18 11:51:50;;;;;;;1999.90;999.90;;;18.80;99.90;;;;;;5077232;28;20381;-82
2021/05/18 11:54:18;;;;;;;1999.90;999.90;;;19.30;99.90;;;;;;5078010;28;20472;-82
2021/05/18 11:56:44;;;;;;;1999.90;999.90;;;19.50;99.40;;;;;;5076823;28;20401;-83
2021/05/18 11:59:11;;;;;;;1999.90;999.90;;;19.40;94.40;;;;;;5077407;28;20472;-83
2021/05/18 12:01:50;;;;;;;1999.90;999.90;;;19.10;98.80;;;;;;5078645;28;20403;-85
2021/05/18 12:04:17;;;;;;;1999.90;999.90;;;18.20;99.90;;;;;;5078518;28;20823;-82
2021/05/18 12:07:14;;;;;;;1999.90;999.90;;;17.40;99.90;;;;;;5080125;28;20399;-82
2021/05/18 12:09:41;;;;;;;1999.90;999.90;;;16.50;99.90;;;;;;5081601;28;20472;-82
2021/05/18 12:12:14;;;;;;;1999.90;999.90;;;16.40;99.90;;;;;;5063800;28;20420;-82
2021/05/18 12:14:43;;;;;;;1999.90;999.90;;;16.60;99.90;;;;;;5081876;28;20393;-82
2021/05/18 12:17:09;;;;;;;1999.90;999.90;;;16.90;99.90;;;;;;5083750;28;20879;-82
2021/05/18 12:19:38;;;;;;;1999.90;999.90;;;17.00;99.90;;;;;;5083252;28;20402;-82
2021/05/18 12:22:04;;;;;;;1999.90;999.90;;;17.20;99.90;;;;;;5082522;28;20197;-82
2021/05/18 12:24:30;;;;;;;1999.90;999.90;;;17.40;99.90;;;;;;5083324;28;20405;-81
2021/05/18 12:26:57;;;;;;;1999.90;999.90;;;17.80;99.90;;;;;;5083999;28;20434;-82
2021/05/18 12:29:42;;;;;;;1999.90;999.90;;;18.00;99.90;;;;;;5081704;28;20429;-81
2021/05/18 12:32:14;;;;;;;1999.90;999.90;;;18.40;99.90;;;;;;5084389;28;20381;-82
2021/05/18 12:34:40;;;;;;;1999.90;999.90;;;18.90;99.90;;;;;;5065568;28;20425;-82
2021/05/18 12:37:06;;;;;;;1999.90;999.90;;;19.00;99.90;;;;;;5083407;28;20402;-81
2021/05/18 12:39:33;;;;;;;1999.90;999.90;;;18.90;99.90;;;;;;5083068;28;20414;-82
2021/05/18 12:42:02;;;;;;;1999.90;999.90;;;18.80;99.90;;;;;;5083088;28;20192;-81
2021/05/18 12:44:48;;;;;;;1999.90;999.90;;;18.90;99.90;;;;;;5065108;28;20418;-82
2021/05/18 12:47:14;;;;;;;1999.90;999.90;;;19.20;99.90;;;;;;5081867;28;20842;-82
2021/05/18 12:49:40;;;;;;;1999.90;999.90;;;19.50;99.90;;;;;;5080163;28;20421;-82
2021/05/18 12:52:15;;;;;;;1999.90;999.90;;;19.70;99.90;;;;;;5081846;28;20168;-82
2021/05/18 12:54:44;;;;;;;1999.90;999.90;;;19.50;99.80;;;;;;5082131;28;20383;-82
2021/05/18 12:57:13;;;;;;;1999.90;999.90;;;19.50;99.90;;;;;;5083082;28;20440;-82
2021/05/18 13:00:04;;;;;;;1999.90;999.90;;;19.50;99.90;;;;;;5081166;28;20929;-82
2021/05/18 13:02:39;;;;;;;1999.90;999.90;;;19.60;97.60;;;;;;5080678;28;20513;-82
2021/05/18 13:05:10;;;;;;;1999.90;999.90;;;19.60;99.90;;;;;;5065229;28;20452;-82
2021/05/18 13:07:37;;;;;;;1999.90;999.90;;;19.40;88.00;;;;;;5081586;28;20418;-83
2021/05/18 13:10:27;;;;;;;1999.90;999.90;;;19.30;93.60;;;;;;5081848;28;20402;-82
2021/05/18 13:13:02;;;;;;;1999.90;999.90;;;19.20;81.60;;;;;;5062270;28;20493;-83
2021/05/18 13:15:28;;;;;;;1999.90;999.90;;;19.20;93.10;;;;;;5081095;28;20493;-82
2021/05/18 13:17:59;;;;;;;1999.90;999.90;;;19.20;93.70;;;;;;5080926;28;20530;-83
2021/05/18 13:20:36;;;;;;;1999.90;999.90;;;19.30;92.40;;;;;;5062237;28;20539;-82
2021/05/18 13:23:04;;;;;;;1999.90;999.90;;;19.40;80.10;;;;;;5063357;28;20883;-82
2021/05/18 13:28:18;;;;;;;1999.90;999.90;;;19.20;77.10;;;;;;5081397;28;20465;-83
2021/05/18 13:30:44;;;;;;;1999.90;999.90;;;19.20;76.10;;;;;;5063022;28;20386;-83
2021/05/18 13:33:10;;;;;;;1999.90;999.90;;;19.30;72.80;;;;;;5080198;28;20489;-83
2021/05/18 13:35:35;;;;;;;1999.90;999.90;;;19.00;78.30;;;;;;5080240;28;20590;-83
2021/05/18 13:38:01;;;;;;;1999.90;999.90;;;18.60;76.10;;;;;;5081104;28;20203;-83
2021/05/18 13:40:28;;;;;;;1999.90;999.90;;;18.20;90.00;;;;;;5080182;28;20195;-84
2021/05/18 13:42:55;;;;;;;1999.90;999.90;;;17.90;91.00;;;;;;5080606;28;20472;-83
2021/05/18 13:45:25;;;;;;;1999.90;999.90;;;17.80;94.50;;;;;;5081625;28;20492;-84
2021/05/18 13:47:53;;;;;;;1999.90;999.90;;;17.50;96.00;;;;;;5080232;28;20532;-84
2021/05/18 13:50:19;;;;;;;1999.90;999.90;;;17.40;91.50;;;;;;5080849;28;20404;-83
2021/05/18 13:52:45;;;;;;;1999.90;999.90;;;17.20;91.50;;;;;;5081642;28;20406;-84
2021/05/18 13:55:12;;;;;;;1999.90;999.90;;;17.30;90.90;;;;;;5080665;28;20440;-84
2021/05/18 13:57:38;;;;;;;1999.90;999.90;;;17.10;83.40;;;;;;5080721;28;20438;-83
2021/05/18 14:00:09;;;;;;;1999.90;999.90;;;17.20;86.60;;;;;;5081382;28;20413;-83
2021/05/18 14:02:37;;;;;;;1999.90;999.90;;;17.30;80.60;;;;;;5082017;28;20453;-84
2021/05/18 14:05:05;;;;;;;1999.90;999.90;;;17.60;78.50;;;;;;5062859;28;20409;-83
2021/05/18 14:10:39;;;;;;;1999.90;999.90;;;17.80;73.20;;;;;;5080413;28;20387;-83
2021/05/18 14:13:04;;;;;;;1999.90;999.90;;;18.10;69.00;;;;;;5079309;28;20436;-83
2021/05/18 14:15:30;;;;;;;1999.90;999.90;;;18.10;70.70;;;;;;5062090;28;20418;-83
2021/05/18 14:17:56;;;;;;;1999.90;999.90;;;17.80;62.40;;;;;;5079248;28;20218;-83
2021/05/18 14:20:22;;;;;;;1999.90;999.90;;;17.40;73.10;;;;;;5064161;28;20175;-84
2021/05/18 14:22:47;;;;;;;1999.90;999.90;;;17.10;81.00;;;;;;5078414;28;20194;-83
2021/05/18 14:25:13;;;;;;;1999.90;999.90;;;17.00;83.20;;;;;;5079006;28;20435;-83
2021/05/18 14:27:41;;;;;;;1999.90;999.90;;;16.90;85.70;;;;;;5080357;28;20236;-83
2021/05/18 14:30:09;;;;;;;1999.90;999.90;;;16.80;90.20;;;;;;5079040;28;20167;-83
2021/05/18 14:32:41;;;;;;;1999.90;999.90;;;16.70;92.70;;;;;;5060543;28;20493;-84
2021/05/18 14:35:09;;;;;;;1999.90;999.90;;;17.00;92.40;;;;;;5079621;28;20470;-84
2021/05/18 14:37:35;;;;;;;1999.90;999.90;;;17.10;73.10;;;;;;5060224;28;20447;-83
2021/05/18 14:40:10;;;;;;;1999.90;999.90;;;17.10;73.10;;;;;;5079837;28;20432;-83
2021/05/18 14:42:58;;;;;;;1999.90;999.90;;;17.00;65.10;;;;;;5077823;28;20433;-83
2021/05/18 14:45:29;;;;;;;1999.90;999.90;;;16.70;52.90;;;;;;5078128;28;20377;-83
2021/05/18 14:55:59;;;;;;;1999.90;999.90;;;15.50;99.90;;;;;;5076103;28;20480;-80
2021/05/18 14:58:25;;;;;;;1999.90;999.90;;;15.20;99.90;;;;;;5075883;28;20462;-81
2021/05/18 15:00:57;;;;;;;1999.90;999.90;;;14.80;99.90;;;;;;5075452;28;20181;-82
2021/05/18 15:03:23;;;;;;;1999.90;999.90;;;14.60;99.90;;;;;;5057546;28;20197;-82
2021/05/18 15:05:49;;;;;;;1999.90;999.90;;;14.60;99.90;;;;;;5076008;28;20856;-83
2021/05/18 15:08:15;;;;;;;1999.90;999.90;;;14.50;99.90;;;;;;5075828;28;20468;-82
2021/05/18 15:10:41;;;;;;;1999.90;999.90;;;14.60;99.90;;;;;;5074927;28;20163;-82
2021/05/18 15:13:07;;;;;;;1999.90;999.90;;;14.30;99.90;;;;;;5075038;28;20838;-83
2021/05/18 15:15:33;;;;;;;1999.90;999.90;;;14.30;99.90;;;;;;5057249;28;20446;-83
2021/05/18 15:18:00;;;;;;;1999.90;999.90;;;14.10;99.90;;;;;;5074826;28;20211;-82
2021/05/18 15:20:26;;;;;;;1999.90;999.90;;;14.00;99.90;;;;;;5075328;28;20410;-82
2021/05/18 15:22:52;;;;;;;1999.90;999.90;;;14.00;99.90;;;;;;5075714;28;20441;-82
2021/05/18 15:25:20;;;;;;;1999.90;999.90;;;14.00;99.90;;;;;;5057978;28;20402;-82
2021/05/18 15:27:46;;;;;;;1999.90;999.90;;;13.90;99.90;;;;;;5076695;28;20433;-82
2021/05/18 15:30:12;;;;;;;1999.90;999.90;;;13.90;99.90;;;;;;5076123;28;20399;-82
2021/05/18 15:32:38;;;;;;;1999.90;999.90;;;14.00;99.90;;;;;;5076906;28;20543;-82
2021/05/18 15:35:06;;;;;;;1999.90;999.90;;;14.00;99.90;;;;;;5077084;28;20393;-82
2021/05/18 15:37:32;;;;;;;1999.90;999.90;;;14.00;99.90;;;;;;5059343;28;20516;-82
2021/05/18 15:39:58;;;;;;;1999.90;999.90;;;14.00;99.90;;;;;;5080331;28;20489;-82
2021/05/18 15:42:24;;;;;;;1999.90;999.90;;;14.00;99.90;;;;;;5083605;28;20437;-81
2021/05/18 15:44:50;;;;;;;1999.90;999.90;;;13.90;99.90;;;;;;5066457;28;20167;-82
2021/05/18 15:47:16;;;;;;;1999.90;999.90;;;14.00;99.90;;;;;;5083646;28;20394;-81
2021/05/18 15:49:42;;;;;;;1999.90;999.90;;;14.00;99.90;;;;;;5084504;28;20410;-81
2021/05/18 15:52:08;;;;;;;1999.90;999.90;;;14.10;99.90;;;;;;5084689;28;20180;-81
2021/05/18 15:54:34;;;;;;;1999.90;999.90;;;14.20;99.90;;;;;;5085704;28;20404;-81
2021/05/18 15:57:00;;;;;;;1999.90;999.90;;;14.30;99.90;;;;;;5086143;28;20167;-81
2021/05/18 15:59:26;;;;;;;1999.90;999.90;;;14.30;99.90;;;;;;5068010;28;20207;-81
2021/05/18 16:01:52;;;;;;;1999.90;999.90;;;14.40;99.90;;;;;;5085623;28;20465;-81
2021/05/18 16:04:18;;;;;;;1999.90;999.90;;;14.50;99.90;;;;;;5086011;28;20402;-82
2021/05/18 16:06:44;;;;;;;1999.90;999.90;;;14.80;99.90;;;;;;5085965;28;20751;-81
2021/05/18 16:09:11;;;;;;;1999.90;999.90;;;15.30;99.90;;;;;;5087048;28;20195;-81
2021/05/18 16:11:38;;;;;;;1999.90;999.90;;;15.70;99.90;;;;;;5089673;28;20160;-84
2021/05/18 16:14:05;;;;;;;1999.90;999.90;;;16.30;99.90;;;;;;5090298;28;20448;-82
2021/05/18 16:16:31;;;;;;;1999.90;999.90;;;16.70;99.90;;;;;;5088557;28;20412;-81
2021/05/18 16:18:57;;;;;;;1999.90;999.90;;;16.70;99.90;;;;;;5070880;28;20453;-81
2021/05/18 16:21:24;;;;;;;1999.90;999.90;;;16.30;99.90;;;;;;5069389;28;20956;-81
2021/05/18 16:23:53;;;;;;;1999.90;999.90;;;16.10;99.90;;;;;;5089518;28;20162;-82
2021/05/18 16:26:22;;;;;;;1999.90;999.90;;;15.80;99.90;;;;;;5088493;28;20414;-81
2021/05/18 16:28:48;;;;;;;1999.90;999.90;;;15.60;99.90;;;;;;5084938;28;20423;-81
2021/05/18 16:31:14;;;;;;;1999.90;999.90;;;15.50;99.90;;;;;;5085552;28;20402;-82
2021/05/18 16:33:40;;;;;;;1999.90;999.90;;;15.40;99.90;;;;;;5087510;28;20288;-81
2021/05/18 16:36:08;;;;;;;1999.90;999.90;;;15.20;99.90;;;;;;5087683;28;20422;-82
2021/05/18 16:38:34;;;;;;;1999.90;999.90;;;15.20;99.90;;;;;;5087837;28;20410;-81
2021/05/18 16:41:00;;;;;;;1999.90;999.90;;;15.10;99.90;;;;;;5089926;28;20395;-81
2021/05/18 16:43:27;;;;;;;1999.90;999.90;;;15.00;99.90;;;;;;5093839;28;20411;-81
2021/05/18 16:45:54;;;;;;;1999.90;999.90;;;15.10;99.90;;;;;;5091202;28;20164;-81
2021/05/18 16:48:21;;;;;;;1999.90;999.90;;;15.50;99.90;;;;;;5071534;28;20522;-81
2021/05/18 16:50:48;;;;;;;1999.90;999.90;;;15.90;99.90;;;;;;5067492;28;20412;-81
2021/05/18 16:53:14;;;;;;;1999.90;999.90;;;16.30;99.90;;;;;;5081454;28;20444;-81
2021/05/18 16:55:40;;;;;;;1999.90;999.90;;;17.10;99.90;;;;;;5063690;28;20443;-81
2021/05/18 16:58:06;;;;;;;1999.90;999.90;;;18.00;99.90;;;;;;5081441;28;20785;-81
2021/05/18 17:00:32;;;;;;;1999.90;999.90;;;18.80;99.90;;;;;;5083087;28;20454;-81
2021/05/18 17:02:58;;;;;;;1999.90;999.90;;;19.70;99.90;;;;;;5087759;28;20403;-81
2021/05/18 17:05:26;;;;;;;1999.90;999.90;;;20.10;99.90;;;;;;5088213;28;20398;-81
2021/05/18 17:07:53;;;;;;;1999.90;999.90;;;20.40;98.60;;;;;;5086877;28;20551;-81
2021/05/18 17:10:22;;;;;;;1999.90;999.90;;;20.20;91.60;;;;;;5067184;28;20471;-81
2021/05/18 17:12:49;;;;;;;1999.90;999.90;;;20.60;94.90;;;;;;5082103;28;20440;-81